Time;durP1;ratioP1;P1;durP2;ratioP2;P2;SDS_P1;SDS_P2;PMS_P1;PMS_P2;Temp;Humidity;BMP_temperature;BMP_pressure;BME280_temperature;BME280_humidity;BME280_pressure;Samples;Min_cycle;Max_cycle;Signal;HPM_P1;HPM_P2
2023/07/13 00:02:17;;;;;;;19.60;15.02;;;21.90;99.90;;;;;;5054412;28;20040;-65
2023/07/13 00:04:43;;;;;;;17.73;14.23;;;21.90;99.90;;;;;;5037115;28;20033;-65
2023/07/13 00:07:09;;;;;;;18.70;14.55;;;21.80;99.90;;;;;;5054717;28;20033;-64
2023/07/13 00:09:35;;;;;;;22.27;15.15;;;21.80;99.90;;;;;;5054697;28;20040;-65
2023/07/13 00:12:02;;;;;;;22.25;14.35;;;21.80;99.90;;;;;;5054366;28;20028;-65
2023/07/13 00:14:29;;;;;;;22.33;16.13;;;21.80;99.90;;;;;;5054578;28;20036;-65
2023/07/13 00:16:56;;;;;;;21.80;15.15;;;21.80;99.90;;;;;;5054618;28;20033;-65
2023/07/13 00:19:22;;;;;;;21.45;15.77;;;21.80;99.90;;;;;;5054744;28;20028;-65
2023/07/13 00:21:47;;;;;;;22.52;15.52;;;21.70;99.90;;;;;;5054526;28;20029;-64
2023/07/13 00:24:22;;;;;;;22.67;15.60;;;21.70;99.90;;;;;;5054371;28;20732;-64
2023/07/13 00:26:47;;;;;;;19.27;15.07;;;21.70;99.90;;;;;;5054477;28;20147;-64
2023/07/13 00:29:14;;;;;;;19.67;14.52;;;21.60;99.90;;;;;;5054636;28;20056;-64
2023/07/13 00:31:40;;;;;;;18.20;15.35;;;21.60;99.90;;;;;;5054394;28;20024;-64
2023/07/13 00:34:06;;;;;;;22.60;15.52;;;21.60;99.90;;;;;;5054296;28;20029;-65
2023/07/13 00:36:32;;;;;;;19.75;15.25;;;21.60;99.90;;;;;;5036504;28;20112;-64
2023/07/13 00:38:58;;;;;;;19.33;15.00;;;21.60;99.90;;;;;;5054282;28;20429;-65
2023/07/13 00:41:24;;;;;;;20.23;14.93;;;21.60;99.90;;;;;;5036403;28;20056;-65
2023/07/13 00:43:50;;;;;;;20.50;15.27;;;21.60;99.90;;;;;;5054546;28;20025;-64
2023/07/13 00:46:26;;;;;;;19.13;14.20;;;21.60;99.90;;;;;;5036490;28;20145;-65
2023/07/13 00:48:54;;;;;;;22.77;16.50;;;21.60;99.90;;;;;;5054270;28;20402;-65
2023/07/13 00:51:27;;;;;;;21.88;14.25;;;21.50;99.90;;;;;;5054179;28;20426;-64
2023/07/13 00:53:56;;;;;;;24.50;16.13;;;21.50;99.90;;;;;;5054337;28;20033;-65
2023/07/13 00:56:22;;;;;;;23.15;14.65;;;21.50;99.90;;;;;;5050492;28;20441;-65
2023/07/13 00:58:50;;;;;;;20.63;16.02;;;21.50;99.90;;;;;;5073979;28;20050;-65
2023/07/13 01:01:15;;;;;;;22.17;15.10;;;21.50;99.90;;;;;;5073878;28;20567;-65
2023/07/13 01:03:41;;;;;;;23.80;16.40;;;21.60;99.90;;;;;;5056170;28;20028;-65
2023/07/13 01:06:08;;;;;;;22.40;15.75;;;21.60;99.90;;;;;;5056059;28;20123;-64
2023/07/13 01:08:34;;;;;;;19.27;15.77;;;21.60;99.90;;;;;;5058778;28;20036;-65
2023/07/13 01:11:00;;;;;;;24.85;16.77;;;21.60;99.90;;;;;;5077668;28;20037;-65
2023/07/13 01:13:26;;;;;;;20.27;15.68;;;21.50;99.90;;;;;;5077830;28;20028;-65
2023/07/13 01:15:54;;;;;;;19.23;15.57;;;21.50;99.90;;;;;;5077975;28;20054;-65
2023/07/13 01:18:26;;;;;;;24.63;15.73;;;21.50;99.90;;;;;;5077822;28;20103;-65
2023/07/13 01:20:59;;;;;;;19.92;14.98;;;21.50;99.90;;;;;;5059739;28;20056;-65
2023/07/13 01:23:27;;;;;;;22.70;15.55;;;21.60;99.90;;;;;;5059728;28;20127;-65
2023/07/13 01:25:56;;;;;;;22.50;14.93;;;21.50;99.90;;;;;;5077804;28;20052;-65
2023/07/13 01:28:23;;;;;;;22.20;15.98;;;21.50;99.90;;;;;;5059692;28;20037;-65
2023/07/13 01:30:49;;;;;;;22.42;15.07;;;21.50;99.90;;;;;;5077630;28;20028;-65
2023/07/13 01:33:17;;;;;;;20.40;15.57;;;21.50;99.90;;;;;;5077434;28;20089;-65
2023/07/13 01:35:44;;;;;;;20.55;15.10;;;21.50;99.90;;;;;;5077509;28;20050;-65
2023/07/13 01:38:11;;;;;;;22.10;14.82;;;21.50;99.90;;;;;;5059517;28;20067;-65
2023/07/13 01:40:38;;;;;;;22.38;16.77;;;21.40;99.90;;;;;;5059435;28;20025;-65
2023/07/13 01:43:04;;;;;;;19.38;14.85;;;21.40;99.90;;;;;;5042992;28;20028;-65
2023/07/13 01:45:30;;;;;;;22.25;14.68;;;21.40;99.90;;;;;;5077263;28;20032;-65
2023/07/13 01:47:57;;;;;;;24.08;14.60;;;21.30;99.90;;;;;;5077046;28;20056;-65
2023/07/13 01:50:24;;;;;;;16.42;14.23;;;21.40;99.90;;;;;;5077556;28;20028;-65
2023/07/13 01:52:50;;;;;;;19.35;15.25;;;21.30;99.90;;;;;;5059229;28;20466;-65
2023/07/13 01:55:16;;;;;;;17.95;14.18;;;21.30;99.90;;;;;;5071913;28;20082;-65
2023/07/13 01:57:42;;;;;;;19.90;13.40;;;21.20;99.90;;;;;;5056987;28;20049;-65
2023/07/13 02:00:10;;;;;;;15.88;13.48;;;21.20;99.90;;;;;;5022646;28;20021;-65
2023/07/13 02:02:41;;;;;;;22.65;14.02;;;21.20;99.90;;;;;;5056959;28;20044;-65
2023/07/13 02:05:09;;;;;;;18.67;14.55;;;21.10;99.90;;;;;;5039131;28;20433;-65
2023/07/13 02:07:35;;;;;;;17.73;13.45;;;21.10;99.90;;;;;;5039051;28;20032;-65
2023/07/13 02:10:03;;;;;;;18.70;13.15;;;21.00;99.90;;;;;;5056690;28;20039;-64
2023/07/13 02:12:29;;;;;;;21.80;13.30;;;21.00;99.90;;;;;;5038883;28;20087;-65
2023/07/13 02:14:55;;;;;;;18.90;13.10;;;21.00;99.90;;;;;;5056673;28;20017;-64
2023/07/13 02:17:21;;;;;;;17.13;12.75;;;20.90;99.90;;;;;;5056969;28;20021;-64
2023/07/13 02:19:47;;;;;;;17.73;13.25;;;20.90;99.90;;;;;;5038755;28;20032;-64
2023/07/13 02:22:13;;;;;;;18.10;13.25;;;20.90;99.90;;;;;;5056493;28;20037;-65
2023/07/13 02:24:39;;;;;;;16.80;12.98;;;20.80;99.90;;;;;;5056605;28;20060;-65
2023/07/13 02:27:05;;;;;;;17.77;12.50;;;20.80;99.90;;;;;;5056747;28;20539;-65
2023/07/13 02:29:31;;;;;;;19.33;13.60;;;20.80;99.90;;;;;;5038364;28;20037;-65
2023/07/13 02:31:57;;;;;;;19.10;13.25;;;20.80;99.90;;;;;;5056352;28;20095;-65
2023/07/13 02:34:23;;;;;;;20.35;13.55;;;20.80;99.90;;;;;;5056718;28;20028;-65
2023/07/13 02:36:49;;;;;;;17.48;12.63;;;20.80;99.90;;;;;;5021895;28;20429;-65
2023/07/13 02:39:15;;;;;;;18.95;13.32;;;20.70;99.90;;;;;;5056351;28;20469;-65
2023/07/13 02:41:41;;;;;;;20.85;13.32;;;20.70;99.90;;;;;;5056372;28;20029;-65
2023/07/13 02:44:08;;;;;;;16.55;12.75;;;20.60;99.90;;;;;;5056078;28;20044;-64
2023/07/13 02:46:36;;;;;;;20.45;12.98;;;20.60;99.90;;;;;;5056217;28;20033;-64
2023/07/13 02:49:03;;;;;;;17.50;13.05;;;20.60;99.90;;;;;;5056199;28;20025;-64
2023/07/13 02:51:29;;;;;;;18.50;12.57;;;20.60;99.90;;;;;;5056026;28;20063;-65
2023/07/13 02:53:55;;;;;;;20.23;12.65;;;20.60;99.90;;;;;;5038188;28;20056;-64
2023/07/13 02:56:27;;;;;;;18.73;12.80;;;20.50;99.90;;;;;;5052252;28;20204;-65
2023/07/13 02:58:54;;;;;;;19.90;13.77;;;20.50;99.90;;;;;;5054522;28;20045;-65
2023/07/13 03:01:21;;;;;;;19.45;12.80;;;20.40;99.90;;;;;;5054680;28;20033;-65
2023/07/13 03:03:49;;;;;;;16.02;12.60;;;20.40;99.90;;;;;;5054795;28;20394;-64
2023/07/13 03:06:16;;;;;;;16.30;11.98;;;20.40;99.90;;;;;;5054413;28;20035;-64
2023/07/13 03:08:48;;;;;;;17.75;12.70;;;20.40;99.90;;;;;;5054486;28;20142;-65
2023/07/13 03:11:18;;;;;;;17.55;12.10;;;20.30;99.90;;;;;;5055408;28;20047;-64
2023/07/13 03:13:48;;;;;;;17.70;12.25;;;20.30;99.90;;;;;;5054307;28;20086;-64
2023/07/13 03:16:18;;;;;;;16.15;11.98;;;20.20;99.90;;;;;;5054496;28;20033;-65
2023/07/13 03:18:47;;;;;;;19.45;12.52;;;20.30;99.90;;;;;;5037882;28;20387;-65
2023/07/13 03:21:13;;;;;;;24.35;12.75;;;20.20;99.90;;;;;;5037635;28;20047;-64
2023/07/13 03:23:40;;;;;;;21.17;13.38;;;20.20;99.90;;;;;;5054089;28;20031;-65
2023/07/13 03:26:12;;;;;;;19.10;12.30;;;20.10;99.90;;;;;;5054160;28;20040;-64
2023/07/13 03:28:40;;;;;;;16.13;11.90;;;20.10;99.90;;;;;;5054123;28;20029;-65
2023/07/13 03:31:11;;;;;;;19.10;12.00;;;20.00;99.90;;;;;;5053454;28;20376;-65
2023/07/13 03:33:37;;;;;;;18.20;12.65;;;20.00;99.90;;;;;;5054004;28;20478;-65
2023/07/13 03:36:06;;;;;;;14.65;11.05;;;20.00;99.90;;;;;;5054025;28;20402;-65
2023/07/13 03:38:32;;;;;;;18.40;11.95;;;20.00;99.90;;;;;;5054029;28;20029;-65
2023/07/13 03:41:00;;;;;;;16.02;11.00;;;20.10;99.90;;;;;;5053791;28;20040;-65
2023/07/13 03:43:30;;;;;;;13.60;10.88;;;20.10;99.90;;;;;;5054075;28;20386;-65
2023/07/13 03:45:56;;;;;;;16.98;11.00;;;20.10;99.90;;;;;;5053721;28;20037;-65
2023/07/13 03:48:21;;;;;;;15.85;11.50;;;20.10;99.90;;;;;;5053738;28;20364;-65
2023/07/13 03:50:49;;;;;;;17.08;11.20;;;20.10;99.90;;;;;;5054762;28;20028;-65
2023/07/13 03:53:15;;;;;;;16.20;11.00;;;20.10;99.90;;;;;;5053555;28;20052;-65
2023/07/13 03:55:42;;;;;;;16.63;11.48;;;20.10;99.90;;;;;;5045181;28;20112;-65
2023/07/13 03:58:35;;;;;;;17.55;10.65;;;20.00;99.90;;;;;;5016896;28;20574;-65
2023/07/13 04:01:10;;;;;;;17.17;10.90;;;20.10;99.90;;;;;;5033690;28;20051;-65
2023/07/13 04:03:36;;;;;;;18.63;11.25;;;20.10;99.90;;;;;;5033523;28;20033;-65
2023/07/13 04:06:07;;;;;;;17.92;11.30;;;20.20;99.90;;;;;;5033632;28;20029;-65
2023/07/13 04:08:36;;;;;;;20.77;12.02;;;20.20;99.90;;;;;;5034578;28;20447;-65
2023/07/13 04:11:03;;;;;;;18.30;11.70;;;20.30;99.90;;;;;;5033168;28;20033;-65
2023/07/13 04:13:29;;;;;;;24.17;11.88;;;20.40;99.90;;;;;;5033416;28;20100;-65
2023/07/13 04:15:55;;;;;;;19.85;11.65;;;20.40;99.90;;;;;;5033202;28;20053;-65
2023/07/13 04:18:21;;;;;;;18.45;11.75;;;20.50;99.90;;;;;;5034644;28;20064;-64
2023/07/13 04:20:49;;;;;;;16.15;11.40;;;20.50;99.90;;;;;;5034736;28;20029;-65
2023/07/13 04:23:16;;;;;;;16.45;11.35;;;20.50;99.90;;;;;;5034424;28;20052;-65
2023/07/13 04:25:46;;;;;;;17.10;10.60;;;20.50;99.90;;;;;;5034597;28;20025;-65
2023/07/13 04:28:12;;;;;;;13.57;10.52;;;20.50;99.90;;;;;;5034419;28;20034;-65
2023/07/13 04:30:38;;;;;;;18.38;10.18;;;20.60;99.90;;;;;;5034379;28;20167;-65
2023/07/13 04:33:04;;;;;;;18.95;11.00;;;20.60;99.90;;;;;;5034581;28;20079;-65
2023/07/13 04:35:31;;;;;;;16.17;10.57;;;20.80;99.90;;;;;;5034487;28;20123;-65
2023/07/13 04:37:57;;;;;;;20.80;11.57;;;20.80;99.90;;;;;;5033050;28;20047;-65
2023/07/13 04:40:23;;;;;;;20.98;10.95;;;20.90;99.90;;;;;;5034329;28;20390;-65
2023/07/13 04:42:49;;;;;;;17.42;10.23;;;21.00;99.90;;;;;;5035758;28;20040;-65
2023/07/13 04:45:15;;;;;;;18.30;10.70;;;21.10;99.90;;;;;;5038541;28;20035;-65
2023/07/13 04:47:41;;;;;;;14.07;9.13;;;21.10;99.90;;;;;;5038329;28;20029;-65
2023/07/13 04:50:08;;;;;;;17.48;9.88;;;21.10;99.90;;;;;;5038499;28;20083;-65
2023/07/13 04:52:34;;;;;;;12.93;9.70;;;21.20;99.90;;;;;;5038257;28;20069;-65
2023/07/13 04:55:01;;;;;;;16.95;10.63;;;21.20;99.90;;;;;;5041194;28;20024;-65
2023/07/13 04:57:27;;;;;;;15.65;10.95;;;21.30;99.90;;;;;;5063020;28;20044;-64
2023/07/13 04:59:53;;;;;;;16.17;10.23;;;21.30;99.90;;;;;;5078182;28;20016;-65
2023/07/13 05:02:21;;;;;;;14.73;10.27;;;21.40;99.90;;;;;;5060216;28;20043;-65
2023/07/13 05:04:48;;;;;;;17.17;9.85;;;21.50;99.90;;;;;;5078077;28;20029;-65
2023/07/13 05:07:14;;;;;;;14.98;9.32;;;21.60;99.90;;;;;;5077960;28;20107;-65
2023/07/13 05:09:40;;;;;;;21.30;8.88;;;21.70;99.90;;;;;;5077947;28;20553;-65
2023/07/13 05:12:08;;;;;;;15.30;8.98;;;21.80;99.90;;;;;;5077722;28;20025;-65
2023/07/13 05:14:34;;;;;;;20.00;9.52;;;21.90;99.90;;;;;;5077816;28;20115;-65
2023/07/13 05:17:00;;;;;;;24.60;8.40;;;22.00;99.90;;;;;;5077935;28;20025;-65
2023/07/13 05:19:26;;;;;;;22.65;9.30;;;22.10;99.90;;;;;;5077794;28;20032;-65
2023/07/13 05:21:52;;;;;;;17.98;8.65;;;22.20;99.90;;;;;;5077738;28;20244;-65
2023/07/13 05:24:18;;;;;;;18.52;10.02;;;22.30;99.90;;;;;;5059016;28;20044;-65
2023/07/13 05:26:44;;;;;;;23.02;10.88;;;22.50;99.90;;;;;;5069155;28;20029;-65
2023/07/13 05:29:11;;;;;;;26.98;10.00;;;22.50;99.90;;;;;;5070282;28;20482;-65
2023/07/13 05:31:37;;;;;;;24.77;10.70;;;22.70;99.90;;;;;;5069279;28;20091;-65
2023/07/13 05:34:03;;;;;;;22.55;9.80;;;22.80;99.90;;;;;;5061034;28;20029;-65
2023/07/13 05:36:29;;;;;;;22.88;9.30;;;22.80;99.90;;;;;;5068797;28;20099;-65
2023/07/13 05:38:55;;;;;;;18.83;9.00;;;22.90;99.90;;;;;;5077396;28;20059;-64
2023/07/13 05:41:20;;;;;;;27.73;11.35;;;23.00;99.90;;;;;;5077529;28;20029;-64
2023/07/13 05:43:46;;;;;;;21.13;9.13;;;23.10;99.90;;;;;;5071249;28;20021;-64
2023/07/13 05:46:12;;;;;;;20.05;8.77;;;23.20;99.90;;;;;;5062790;28;20020;-65
2023/07/13 05:48:38;;;;;;;26.80;10.48;;;23.30;99.90;;;;;;5076919;28;20036;-65
2023/07/13 05:51:04;;;;;;;17.83;9.68;;;23.50;99.90;;;;;;5059225;28;20058;-65
2023/07/13 05:53:30;;;;;;;22.65;9.93;;;23.60;99.90;;;;;;5052263;28;20044;-65
2023/07/13 05:55:56;;;;;;;21.42;9.02;;;23.70;99.90;;;;;;5074975;28;20480;-65
2023/07/13 05:58:22;;;;;;;19.10;9.27;;;23.80;99.90;;;;;;5076616;28;20131;-65
2023/07/13 06:00:48;;;;;;;15.32;6.90;;;23.90;99.90;;;;;;5076493;28;20020;-65
2023/07/13 06:03:15;;;;;;;17.00;8.00;;;24.10;99.90;;;;;;5060148;28;20107;-65
2023/07/13 06:05:41;;;;;;;27.98;8.20;;;24.20;99.90;;;;;;5056864;28;20036;-65
2023/07/13 06:08:08;;;;;;;25.65;7.75;;;24.40;99.90;;;;;;5060492;28;20028;-65
2023/07/13 06:10:35;;;;;;;17.55;7.20;;;24.60;99.90;;;;;;5067356;28;20374;-64
2023/07/13 06:13:05;;;;;;;23.42;8.75;;;24.80;99.90;;;;;;5072093;28;20094;-65
2023/07/13 06:15:34;;;;;;;28.87;9.27;;;24.90;99.90;;;;;;5055669;28;20029;-65
2023/07/13 06:18:02;;;;;;;24.75;9.07;;;25.10;99.90;;;;;;5058216;28;20245;-65
2023/07/13 06:20:29;;;;;;;27.45;8.85;;;25.10;99.90;;;;;;5074334;28;20100;-65
2023/07/13 06:22:58;;;;;;;32.47;9.60;;;25.00;99.90;;;;;;5072472;28;20406;-65
2023/07/13 06:25:25;;;;;;;22.17;7.32;;;25.10;99.90;;;;;;5076265;28;20032;-65
2023/07/13 06:27:51;;;;;;;15.07;6.85;;;25.30;99.90;;;;;;5076405;28;20028;-65
2023/07/13 06:30:17;;;;;;;15.82;6.90;;;25.40;99.90;;;;;;5076414;28;20029;-65
2023/07/13 06:32:43;;;;;;;17.90;7.32;;;25.50;99.90;;;;;;5076051;28;20032;-65
2023/07/13 06:35:12;;;;;;;31.15;8.48;;;25.70;99.10;;;;;;5075693;28;20017;-65
2023/07/13 06:37:38;;;;;;;23.35;8.57;;;25.90;99.90;;;;;;5075880;28;20036;-65
2023/07/13 06:40:12;;;;;;;21.88;8.35;;;26.10;99.90;;;;;;5071254;28;20036;-65
2023/07/13 06:42:39;;;;;;;24.17;8.50;;;26.30;99.00;;;;;;5055100;28;20083;-65
2023/07/13 06:45:06;;;;;;;18.90;8.45;;;26.50;98.60;;;;;;5056143;28;20033;-65
2023/07/13 06:47:32;;;;;;;12.15;7.38;;;26.70;96.70;;;;;;5055846;28;20474;-65
2023/07/13 06:49:58;;;;;;;16.83;7.65;;;26.80;95.60;;;;;;5054437;28;20033;-65
2023/07/13 06:52:24;;;;;;;41.97;9.60;;;27.00;95.20;;;;;;5063042;28;20028;-65
2023/07/13 06:54:52;;;;;;;18.38;7.38;;;27.10;93.00;;;;;;5076008;28;20025;-65
2023/07/13 06:57:21;;;;;;;19.50;8.18;;;27.30;93.70;;;;;;5067260;28;20045;-65
2023/07/13 06:59:48;;;;;;;16.38;7.32;;;27.50;98.90;;;;;;5066989;28;20638;-65
2023/07/13 07:02:14;;;;;;;17.05;8.13;;;27.50;98.00;;;;;;5067694;28;20033;-65
2023/07/13 07:04:40;;;;;;;16.95;6.82;;;27.60;98.90;;;;;;5072210;28;20032;-65
2023/07/13 07:07:06;;;;;;;23.92;7.72;;;27.90;98.30;;;;;;5075218;28;20028;-65
2023/07/13 07:09:32;;;;;;;19.98;8.43;;;28.20;96.10;;;;;;5074567;28;20047;-65
2023/07/13 07:11:58;;;;;;;24.33;7.40;;;28.50;95.50;;;;;;5075687;28;20123;-65
2023/07/13 07:14:24;;;;;;;18.55;7.38;;;28.80;93.60;;;;;;5058606;28;20024;-65
2023/07/13 07:16:50;;;;;;;25.75;7.53;;;29.20;93.10;;;;;;5069648;28;20056;-65
2023/07/13 07:19:16;;;;;;;21.38;7.03;;;29.50;90.20;;;;;;5061637;28;20021;-65
2023/07/13 07:21:42;;;;;;;13.65;6.47;;;29.80;89.00;;;;;;5068202;28;20378;-66
2023/07/13 07:24:08;;;;;;;16.35;6.72;;;30.20;81.60;;;;;;5070908;28;20028;-66
2023/07/13 07:26:34;;;;;;;9.75;5.55;;;30.50;82.60;;;;;;5056146;28;20420;-65
2023/07/13 07:29:00;;;;;;;14.30;7.45;;;31.00;82.10;;;;;;5072149;28;20035;-65
2023/07/13 07:31:26;;;;;;;14.55;7.40;;;31.10;78.20;;;;;;5064143;28;20382;-66
2023/07/13 07:33:52;;;;;;;25.17;7.88;;;31.50;77.60;;;;;;5063351;28;20509;-66
2023/07/13 07:36:18;;;;;;;22.73;8.13;;;31.70;77.60;;;;;;5065511;28;20046;-66
2023/07/13 07:38:44;;;;;;;30.13;8.82;;;31.90;77.90;;;;;;5067318;28;20433;-66
2023/07/13 07:41:10;;;;;;;22.45;7.32;;;32.20;77.80;;;;;;5052560;28;20033;-66
2023/07/13 07:43:36;;;;;;;18.00;7.22;;;32.40;75.60;;;;;;5067073;28;20436;-66
2023/07/13 07:46:03;;;;;;;13.30;6.22;;;32.60;74.00;;;;;;5087176;28;20052;-66
2023/07/13 07:48:29;;;;;;;19.88;8.55;;;32.80;72.10;;;;;;5071183;28;20033;-66
2023/07/13 07:51:00;;;;;;;23.08;9.95;;;32.80;69.10;;;;;;5074070;28;20417;-66
2023/07/13 07:53:26;;;;;;;21.77;9.13;;;32.70;74.20;;;;;;5070447;28;20084;-66
2023/07/13 07:55:51;;;;;;;25.88;10.25;;;32.90;72.70;;;;;;5048537;28;20484;-66
2023/07/13 07:58:17;;;;;;;15.50;8.18;;;33.10;72.30;;;;;;5066318;28;20090;-67
2023/07/13 08:00:43;;;;;;;18.33;8.95;;;33.40;73.40;;;;;;5073440;28;20104;-66
2023/07/13 08:03:10;;;;;;;17.77;9.20;;;33.60;66.60;;;;;;5077496;28;20030;-67
2023/07/13 08:05:37;;;;;;;17.55;9.57;;;33.70;66.20;;;;;;5058449;28;20052;-67
2023/07/13 08:08:04;;;;;;;23.25;9.82;;;33.90;66.20;;;;;;5074231;28;20033;-66
2023/07/13 08:10:30;;;;;;;34.17;10.77;;;33.70;68.30;;;;;;5072617;28;20508;-66
2023/07/13 08:12:56;;;;;;;18.17;8.18;;;34.00;69.40;;;;;;5070121;28;20028;-67
2023/07/13 08:15:22;;;;;;;22.83;9.70;;;34.20;63.30;;;;;;5071051;28;20065;-67
2023/07/13 08:17:49;;;;;;;18.20;8.48;;;34.10;67.00;;;;;;5071376;28;20033;-67
2023/07/13 08:20:17;;;;;;;18.77;8.73;;;34.50;64.00;;;;;;5069493;28;20031;-67
2023/07/13 08:22:43;;;;;;;18.42;8.43;;;34.70;68.40;;;;;;5057160;28;20082;-66
2023/07/13 08:25:09;;;;;;;20.05;8.85;;;34.80;61.70;;;;;;5065758;28;20028;-66
2023/07/13 08:27:35;;;;;;;15.18;7.32;;;34.80;64.10;;;;;;5060652;28;20111;-66
2023/07/13 08:30:01;;;;;;;17.23;8.02;;;35.00;63.00;;;;;;5065149;28;20036;-67
2023/07/13 08:32:27;;;;;;;20.58;7.90;;;34.70;58.80;;;;;;5066486;28;20031;-67
2023/07/13 08:34:53;;;;;;;12.35;7.72;;;35.30;57.90;;;;;;5072627;28;20099;-67
2023/07/13 08:37:19;;;;;;;19.52;8.35;;;35.30;55.80;;;;;;5050454;28;20036;-67
2023/07/13 08:39:45;;;;;;;14.93;8.43;;;35.50;57.10;;;;;;5066541;28;20017;-66
2023/07/13 08:42:23;;;;;;;25.17;8.45;;;34.80;59.60;;;;;;5067581;28;20047;-66
2023/07/13 08:45:12;;;;;;;15.60;7.72;;;34.80;56.10;;;;;;5044890;28;20040;-66
2023/07/13 08:47:45;;;;;;;19.23;7.50;;;34.80;56.10;;;;;;5058241;28;20101;-66
2023/07/13 08:50:17;;;;;;;17.92;8.05;;;34.90;55.60;;;;;;5058545;28;20029;-66
2023/07/13 08:52:44;;;;;;;14.30;6.45;;;34.90;57.50;;;;;;5053456;28;20033;-67
2023/07/13 08:55:17;;;;;;;14.98;6.70;;;35.40;55.70;;;;;;5059873;28;20027;-67
2023/07/13 08:57:48;;;;;;;12.25;6.45;;;36.10;51.70;;;;;;5061037;28;20052;-67
2023/07/13 09:00:15;;;;;;;15.27;6.65;;;36.20;47.20;;;;;;5075267;28;20056;-67
2023/07/13 09:02:57;;;;;;;14.48;6.40;;;36.40;49.30;;;;;;5093497;28;20020;-67
2023/07/13 09:05:41;;;;;;;11.68;5.88;;;36.20;52.60;;;;;;5093651;28;20028;-67
2023/07/13 09:08:25;;;;;;;25.30;8.13;;;36.30;49.20;;;;;;5094226;28;20051;-67
2023/07/13 09:11:19;;;;;;;13.00;6.45;;;36.80;48.00;;;;;;5093712;28;20060;-67
2023/07/13 09:17:17;;;;;;;17.02;5.80;;;37.20;46.50;;;;;;5053411;28;20041;-67
2023/07/13 09:19:48;;;;;;;12.65;6.57;;;37.20;46.90;;;;;;5055916;28;20063;-67
2023/07/13 09:22:21;;;;;;;14.50;5.53;;;37.50;48.20;;;;;;5021621;28;20033;-67
2023/07/13 09:25:04;;;;;;;10.85;5.63;;;37.70;43.40;;;;;;5072116;28;20039;-67
2023/07/13 09:27:37;;;;;;;22.40;6.30;;;37.50;44.50;;;;;;5073442;28;20442;-67
2023/07/13 09:30:15;;;;;;;16.55;5.60;;;37.60;44.70;;;;;;5076856;28;20033;-67
2023/07/13 09:32:50;;;;;;;9.57;5.72;;;37.50;46.90;;;;;;5077426;28;20078;-67
2023/07/13 09:35:20;;;;;;;16.20;6.35;;;37.40;47.20;;;;;;5071111;28;20020;-67
2023/07/13 09:37:57;;;;;;;16.63;5.75;;;37.90;47.60;;;;;;5056998;28;20025;-67
2023/07/13 09:40:40;;;;;;;13.20;5.47;;;37.80;39.80;;;;;;5065202;28;20028;-67
2023/07/13 09:43:11;;;;;;;13.50;5.63;;;38.20;43.50;;;;;;5056641;28;20032;-67
2023/07/13 09:45:39;;;;;;;14.80;6.60;;;37.90;39.90;;;;;;5055880;28;20029;-67
2023/07/13 09:48:14;;;;;;;10.60;5.47;;;38.10;43.00;;;;;;5075299;28;20031;-67
2023/07/13 09:50:41;;;;;;;12.60;5.88;;;38.00;45.80;;;;;;5080626;28;20028;-67
2023/07/13 09:53:16;;;;;;;8.68;5.45;;;37.90;43.70;;;;;;5062875;28;20031;-67
2023/07/13 09:55:45;;;;;;;12.30;5.30;;;38.00;43.10;;;;;;5075183;28;20059;-67
2023/07/13 09:58:26;;;;;;;18.55;6.03;;;37.90;46.70;;;;;;5077349;28;20070;-67
2023/07/13 10:01:04;;;;;;;13.63;5.78;;;38.20;44.10;;;;;;5076772;28;20550;-67
2023/07/13 10:03:37;;;;;;;10.98;5.65;;;38.50;40.70;;;;;;5083987;28;20024;-67
2023/07/13 10:06:22;;;;;;;9.93;5.93;;;38.10;44.10;;;;;;5097957;28;20042;-67
2023/07/13 10:08:53;;;;;;;9.80;5.28;;;38.10;40.70;;;;;;5097767;28;20103;-67
2023/07/13 10:11:22;;;;;;;7.60;5.22;;;38.40;38.50;;;;;;5097400;28;20565;-67
2023/07/13 10:14:03;;;;;;;19.75;7.57;;;38.80;36.80;;;;;;5096673;28;20016;-67
2023/07/13 10:16:32;;;;;;;11.48;6.07;;;38.30;38.40;;;;;;5092173;28;20525;-67
2023/07/13 10:19:06;;;;;;;18.45;6.20;;;38.90;36.20;;;;;;5078485;28;20111;-67
2023/07/13 10:21:38;;;;;;;11.85;5.57;;;38.80;34.50;;;;;;5076328;28;20456;-66
2023/07/13 10:24:24;;;;;;;10.90;5.10;;;38.70;34.30;;;;;;5069766;28;20039;-67
2023/07/13 10:27:12;;;;;;;10.55;5.05;;;39.10;33.50;;;;;;5062002;28;20025;-67
2023/07/13 10:29:48;;;;;;;12.70;6.03;;;39.20;39.00;;;;;;5076569;28;20044;-67
2023/07/13 10:32:14;;;;;;;9.77;5.63;;;39.10;35.60;;;;;;5068777;28;20463;-67
2023/07/13 10:34:47;;;;;;;12.70;5.93;;;39.40;38.40;;;;;;5075476;28;20099;-67
2023/07/13 10:37:21;;;;;;;11.52;6.18;;;39.60;37.20;;;;;;5068574;28;20115;-67
2023/07/13 10:39:49;;;;;;;10.68;5.30;;;40.00;37.00;;;;;;5056342;28;20040;-67
2023/07/13 10:42:26;;;;;;;13.65;5.65;;;39.50;38.30;;;;;;5069617;28;20024;-67
2023/07/13 10:44:52;;;;;;;15.40;5.97;;;39.70;36.30;;;;;;5072048;28;20032;-67
2023/07/13 10:47:19;;;;;;;11.93;5.55;;;39.10;36.40;;;;;;5073268;28;20020;-67
2023/07/13 10:49:53;;;;;;;10.43;5.88;;;39.30;37.10;;;;;;5074139;28;20294;-67
2023/07/13 10:53:01;;;;;;;14.45;5.85;;;39.60;38.20;;;;;;5075299;28;20058;-67
2023/07/13 10:55:42;;;;;;;18.35;5.68;;;39.70;39.10;;;;;;5064181;28;20024;-67
2023/07/13 10:58:18;;;;;;;16.30;5.80;;;39.50;37.20;;;;;;5072584;28;20485;-67
2023/07/13 11:00:53;;;;;;;11.80;4.90;;;39.90;39.00;;;;;;5075110;28;20428;-67
2023/07/13 11:03:23;;;;;;;11.32;5.88;;;39.80;37.10;;;;;;5075473;28;20398;-67
2023/07/13 11:06:04;;;;;;;8.95;5.10;;;40.00;38.40;;;;;;5071236;28;20032;-67
2023/07/13 11:08:51;;;;;;;15.98;6.32;;;39.50;38.70;;;;;;5071422;28;20031;-67
2023/07/13 11:11:34;;;;;;;12.02;5.60;;;39.20;35.60;;;;;;5072604;28;20024;-67
2023/07/13 11:14:04;;;;;;;12.85;5.63;;;39.60;42.20;;;;;;5074612;28;20099;-67
2023/07/13 11:16:45;;;;;;;10.38;5.72;;;39.80;39.00;;;;;;5073004;28;20060;-67
2023/07/13 11:19:38;;;;;;;8.85;5.80;;;39.90;42.20;;;;;;5069795;28;20033;-67
2023/07/13 11:22:17;;;;;;;15.75;7.07;;;40.10;36.00;;;;;;5068630;28;20024;-67
2023/07/13 11:25:21;;;;;;;11.35;5.78;;;39.60;39.70;;;;;;5068750;28;20411;-67
2023/07/13 11:28:03;;;;;;;13.35;7.93;;;40.00;37.90;;;;;;5067027;28;20028;-67
2023/07/13 11:30:29;;;;;;;15.43;6.38;;;39.60;36.00;;;;;;5067976;28;20029;-67
2023/07/13 11:33:17;;;;;;;9.90;6.15;;;39.20;38.40;;;;;;5060963;28;20166;-67
2023/07/13 11:36:02;;;;;;;13.68;5.25;;;39.80;39.50;;;;;;5060331;28;20021;-67
2023/07/13 11:38:39;;;;;;;11.30;5.57;;;40.10;41.00;;;;;;5072466;28;20024;-67
2023/07/13 11:41:21;;;;;;;17.92;6.93;;;39.60;39.50;;;;;;5066536;28;20359;-67
2023/07/13 11:43:54;;;;;;;11.07;6.32;;;38.60;36.30;;;;;;5064850;28;20475;-67
2023/07/13 11:46:28;;;;;;;16.45;7.38;;;38.70;37.40;;;;;;5065025;28;20028;-67
2023/07/13 11:48:54;;;;;;;9.73;5.40;;;38.50;37.40;;;;;;5062272;28;20028;-67
2023/07/13 11:51:35;;;;;;;10.27;6.03;;;38.80;40.50;;;;;;5062527;28;20021;-67
2023/07/13 11:54:06;;;;;;;15.73;6.18;;;38.70;39.00;;;;;;5067172;28;20021;-67
2023/07/13 11:56:33;;;;;;;13.63;6.82;;;38.80;41.30;;;;;;5074558;28;20488;-67
2023/07/13 11:59:05;;;;;;;20.65;6.80;;;38.50;40.70;;;;;;5074651;28;20079;-67
2023/07/13 12:01:32;;;;;;;10.43;6.43;;;38.30;38.50;;;;;;5074395;28;20033;-67
2023/07/13 12:04:03;;;;;;;11.52;6.18;;;37.20;44.60;;;;;;5071406;28;20035;-67
2023/07/13 12:06:40;;;;;;;15.85;6.95;;;36.40;49.20;;;;;;5065478;28;20033;-67
2023/07/13 12:09:18;;;;;;;22.98;7.60;;;36.60;50.60;;;;;;5070602;28;20064;-66
2023/07/13 12:11:47;;;;;;;17.50;6.28;;;37.40;48.50;;;;;;5056039;28;20036;-67
2023/07/13 12:14:20;;;;;;;10.55;5.57;;;37.70;51.80;;;;;;5074729;28;20032;-67
2023/07/13 12:16:47;;;;;;;20.33;6.80;;;37.60;47.40;;;;;;5072084;28;20025;-67
2023/07/13 12:19:20;;;;;;;;;;;36.70;52.70;;;;;;5070635;28;20028;-67
2023/07/13 12:21:47;;;;;;;10.63;6.28;;;36.60;49.60;;;;;;5069934;28;19915;-67
2023/07/13 12:24:20;;;;;;;9.65;6.15;;;36.40;52.10;;;;;;5092988;28;20043;-67
2023/07/13 12:27:17;;;;;;;12.65;6.07;;;36.60;47.40;;;;;;5094419;28;20124;-67
2023/07/13 12:29:57;;;;;;;12.70;6.15;;;36.40;50.80;;;;;;5094545;28;20023;-67
2023/07/13 12:32:25;;;;;;;12.45;6.63;;;36.50;53.30;;;;;;5094409;28;20111;-67
2023/07/13 12:35:15;;;;;;;11.18;6.50;;;36.70;52.80;;;;;;5094543;28;20042;-67
2023/07/13 12:37:46;;;;;;;12.25;6.75;;;36.50;54.50;;;;;;5094330;28;20024;-67
2023/07/13 12:40:23;;;;;;;15.75;6.07;;;36.80;54.70;;;;;;5094137;28;20043;-67
2023/07/13 12:42:52;;;;;;;13.43;7.40;;;37.00;48.70;;;;;;5094792;28;20036;-67
2023/07/13 12:45:28;;;;;;;14.30;7.20;;;37.40;50.80;;;;;;5062196;28;20040;-66
2023/07/13 12:48:04;;;;;;;19.65;7.07;;;37.70;53.90;;;;;;5054649;28;20025;-67
2023/07/13 12:50:42;;;;;;;15.18;7.25;;;37.80;53.50;;;;;;5058319;28;20108;-67